SXS768 EDDH-LOWI
Flight info
| Callsign | SXS768 |
|---|---|
| Flight time | 1h 43m |
| Altitude | 35000 |
| Route | AMLUH2G AMLUH M852 DENIX DCT ZUCKA/N0453F310 DCT GALMA M736 RDG/N0456F300 M736 DOSEL/N0458F310 M736 TULSI TULSI3A |
| Aircraft | B738/M-SDE2E3FGHIRWXY/LB1 |
Departure
| Time | 2026-05-06 18:01 |
|---|---|
| Airport | Hamburg Helmut Schmidt Airport (EDDH) |
Arrival
| Time | 2026-05-06 19:44 |
|---|---|
| Airport | Innsbruck Airport (LOWI) |
| Time | Latitude | Longitude | Altitude | Speed | Heading |
|---|---|---|---|---|---|
| 2026-05-06 17:34 | 53.63373 | 10.00338 | 47 ft | 0 kts | 86° |
| 2026-05-06 17:48 | 53.63372 | 10.00337 | 47 ft | 1 kts | 86° |
| 2026-05-06 17:49 | 53.63372 | 10.00312 | 45 ft | 3 kts | 86° |
| 2026-05-06 17:49 | 53.63370 | 10.00278 | 44 ft | 3 kts | 86° |
| 2026-05-06 17:49 | 53.63369 | 10.00244 | 45 ft | 3 kts | 86° |
| 2026-05-06 17:49 | 53.63368 | 10.00211 | 47 ft | 3 kts | 97° |
| 2026-05-06 17:50 | 53.63373 | 10.00180 | 43 ft | 3 kts | 122° |
| 2026-05-06 17:50 | 53.63385 | 10.00160 | 46 ft | 2 kts | 165° |
| 2026-05-06 17:50 | 53.63391 | 10.00157 | 45 ft | 0 kts | 176° |
| 2026-05-06 17:53 | 53.63374 | 10.00159 | 46 ft | 7 kts | 175° |
| 2026-05-06 17:53 | 53.63314 | 10.00167 | 47 ft | 9 kts | 175° |
| 2026-05-06 17:53 | 53.63253 | 10.00176 | 47 ft | 9 kts | 174° |
| 2026-05-06 17:53 | 53.63194 | 10.00184 | 47 ft | 8 kts | 176° |
| 2026-05-06 17:54 | 53.63136 | 10.00192 | 47 ft | 8 kts | 175° |
| 2026-05-06 17:54 | 53.63080 | 10.00190 | 47 ft | 8 kts | 192° |
| 2026-05-06 17:54 | 53.63033 | 10.00145 | 47 ft | 8 kts | 214° |
| 2026-05-06 17:54 | 53.62989 | 10.00097 | 47 ft | 7 kts | 211° |
| 2026-05-06 17:55 | 53.62946 | 10.00051 | 45 ft | 7 kts | 214° |
| 2026-05-06 17:55 | 53.62917 | 9.99985 | 47 ft | 7 kts | 242° |
| 2026-05-06 17:55 | 53.62902 | 9.99933 | 46 ft | 0 kts | 244° |
| 2026-05-06 17:57 | 53.62897 | 9.99918 | 47 ft | 8 kts | 244° |
| 2026-05-06 17:57 | 53.62861 | 9.99762 | 44 ft | 15 kts | 280° |
| 2026-05-06 17:57 | 53.62925 | 9.99691 | 44 ft | 4 kts | 328° |
| 2026-05-06 17:58 | 53.62927 | 9.99688 | 44 ft | 0 kts | 326° |
| 2026-05-06 17:58 | 53.62931 | 9.99685 | 44 ft | 2 kts | 330° |
| 2026-05-06 17:58 | 53.62932 | 9.99684 | 44 ft | 0 kts | 332° |
| 2026-05-06 18:00 | 53.63111 | 9.99526 | 45 ft | 69 kts | 333° |
| 2026-05-06 18:00 | 53.63756 | 9.98973 | 47 ft | 140 kts | 334° |
| 2026-05-06 18:00 | 53.64817 | 9.98163 | 295 ft | 182 kts | 337° |
| 2026-05-06 18:01 | 53.66046 | 9.97156 | 532 ft | 215 kts | 334° |
| 2026-05-06 18:01 | 53.67420 | 9.95947 | 938 ft | 230 kts | 335° |
| 2026-05-06 18:01 | 53.68903 | 9.94771 | 1312 ft | 239 kts | 348° |
| 2026-05-06 18:01 | 53.70017 | 9.94588 | 1553 ft | 238 kts | 4° |
| 2026-05-06 18:02 | 53.71643 | 9.94669 | 1941 ft | 233 kts | 11° |
| 2026-05-06 18:02 | 53.73075 | 9.95651 | 2557 ft | 217 kts | 39° |
| 2026-05-06 18:02 | 53.74032 | 9.97526 | 3168 ft | 211 kts | 62° |
| 2026-05-06 18:02 | 53.74475 | 9.99905 | 3781 ft | 219 kts | 83° |
| 2026-05-06 18:03 | 53.74414 | 10.02547 | 4384 ft | 232 kts | 99° |
| 2026-05-06 18:03 | 53.73754 | 10.05116 | 5001 ft | 245 kts | 117° |
| 2026-05-06 18:03 | 53.72884 | 10.07677 | 5575 ft | 258 kts | 117° |
| 2026-05-06 18:03 | 53.71977 | 10.10337 | 6173 ft | 262 kts | 117° |
| 2026-05-06 18:04 | 53.71067 | 10.13028 | 6721 ft | 266 kts | 117° |
| 2026-05-06 18:04 | 53.70149 | 10.15763 | 7273 ft | 269 kts | 117° |
| 2026-05-06 18:04 | 53.69207 | 10.18515 | 7841 ft | 276 kts | 122° |
| 2026-05-06 18:04 | 53.67775 | 10.20721 | 8397 ft | 286 kts | 150° |
| 2026-05-06 18:05 | 53.65870 | 10.21890 | 9027 ft | 297 kts | 162° |
| 2026-05-06 18:05 | 53.63848 | 10.22816 | 9627 ft | 307 kts | 163° |
| 2026-05-06 18:05 | 53.61749 | 10.23741 | 10198 ft | 316 kts | 164° |
| 2026-05-06 18:05 | 53.59598 | 10.24694 | 10758 ft | 324 kts | 164° |
| 2026-05-06 18:06 | 53.57396 | 10.25681 | 11323 ft | 332 kts | 165° |
| 2026-05-06 18:06 | 53.55137 | 10.26704 | 11884 ft | 340 kts | 165° |
| 2026-05-06 18:06 | 53.52824 | 10.27758 | 12466 ft | 347 kts | 165° |
| 2026-05-06 18:06 | 53.50473 | 10.28834 | 13052 ft | 353 kts | 166° |
| 2026-05-06 18:07 | 53.48080 | 10.29930 | 13645 ft | 359 kts | 166° |
| 2026-05-06 18:07 | 53.45651 | 10.31043 | 14198 ft | 365 kts | 166° |
| 2026-05-06 18:07 | 53.43205 | 10.32162 | 14727 ft | 372 kts | 166° |
| 2026-05-06 18:07 | 53.40686 | 10.33304 | 15301 ft | 378 kts | 167° |
| 2026-05-06 18:08 | 53.38116 | 10.34458 | 15841 ft | 386 kts | 167° |
| 2026-05-06 18:08 | 53.35501 | 10.35628 | 16417 ft | 392 kts | 167° |
| 2026-05-06 18:08 | 53.32846 | 10.36815 | 16978 ft | 398 kts | 167° |
| 2026-05-06 18:08 | 53.30161 | 10.38015 | 17566 ft | 402 kts | 167° |
| 2026-05-06 18:09 | 53.27450 | 10.39226 | 18135 ft | 404 kts | 167° |
| 2026-05-06 18:09 | 53.24727 | 10.40441 | 18647 ft | 406 kts | 167° |
| 2026-05-06 18:09 | 53.21994 | 10.41660 | 19175 ft | 406 kts | 167° |
| 2026-05-06 18:09 | 53.19260 | 10.42878 | 19699 ft | 407 kts | 167° |
| 2026-05-06 18:10 | 53.16525 | 10.44094 | 20252 ft | 407 kts | 167° |
| 2026-05-06 18:10 | 53.13779 | 10.45314 | 20800 ft | 407 kts | 167° |
| 2026-05-06 18:10 | 53.11027 | 10.46408 | 21365 ft | 407 kts | 170° |
| 2026-05-06 18:10 | 53.08247 | 10.47325 | 21940 ft | 406 kts | 171° |
| 2026-05-06 18:11 | 53.05472 | 10.48166 | 22528 ft | 405 kts | 172° |
| 2026-05-06 18:11 | 53.02697 | 10.48987 | 23122 ft | 404 kts | 172° |
| 2026-05-06 18:11 | 52.99932 | 10.49809 | 23676 ft | 403 kts | 172° |
| 2026-05-06 18:11 | 52.97151 | 10.50643 | 23835 ft | 413 kts | 172° |
| 2026-05-06 18:12 | 52.94273 | 10.51514 | 23855 ft | 425 kts | 172° |
| 2026-05-06 18:12 | 52.91331 | 10.52413 | 23929 ft | 434 kts | 172° |
| 2026-05-06 18:12 | 52.88359 | 10.53328 | 24244 ft | 436 kts | 172° |
| 2026-05-06 18:12 | 52.85358 | 10.54255 | 24522 ft | 439 kts | 171° |
| 2026-05-06 18:13 | 52.82343 | 10.55187 | 24808 ft | 442 kts | 172° |
| 2026-05-06 18:13 | 52.79312 | 10.56123 | 25095 ft | 444 kts | 172° |
| 2026-05-06 18:13 | 52.76268 | 10.57061 | 25395 ft | 446 kts | 172° |
| 2026-05-06 18:13 | 52.73209 | 10.58002 | 25688 ft | 448 kts | 172° |
| 2026-05-06 18:14 | 52.70137 | 10.58945 | 26021 ft | 450 kts | 172° |
| 2026-05-06 18:14 | 52.67046 | 10.59892 | 26300 ft | 453 kts | 172° |
| 2026-05-06 18:14 | 52.63974 | 10.60831 | 26607 ft | 455 kts | 172° |
| 2026-05-06 18:14 | 52.60858 | 10.61783 | 26907 ft | 456 kts | 172° |
| 2026-05-06 18:15 | 52.57736 | 10.62736 | 27205 ft | 457 kts | 172° |
| 2026-05-06 18:15 | 52.54611 | 10.63687 | 27522 ft | 456 kts | 172° |
| 2026-05-06 18:15 | 52.51490 | 10.64637 | 27838 ft | 455 kts | 172° |
| 2026-05-06 18:15 | 52.48376 | 10.65584 | 28155 ft | 453 kts | 172° |
| 2026-05-06 18:16 | 52.45286 | 10.66521 | 28480 ft | 451 kts | 173° |
| 2026-05-06 18:16 | 52.42200 | 10.67456 | 28816 ft | 449 kts | 173° |
| 2026-05-06 18:16 | 52.39127 | 10.68386 | 29136 ft | 448 kts | 173° |
| 2026-05-06 18:16 | 52.36071 | 10.69309 | 29481 ft | 446 kts | 173° |
| 2026-05-06 18:17 | 52.33028 | 10.70226 | 29808 ft | 444 kts | 173° |
| 2026-05-06 18:17 | 52.29993 | 10.71140 | 30113 ft | 442 kts | 173° |
| 2026-05-06 18:17 | 52.27013 | 10.72037 | 30391 ft | 440 kts | 173° |
| 2026-05-06 18:17 | 52.24006 | 10.72939 | 30686 ft | 438 kts | 173° |
| 2026-05-06 18:18 | 52.21018 | 10.73834 | 30981 ft | 437 kts | 173° |
| 2026-05-06 18:18 | 52.18026 | 10.74729 | 31280 ft | 436 kts | 173° |
| 2026-05-06 18:18 | 52.15038 | 10.75622 | 31575 ft | 436 kts | 173° |
| 2026-05-06 18:18 | 52.12057 | 10.76512 | 31890 ft | 435 kts | 173° |
| 2026-05-06 18:19 | 52.09085 | 10.77398 | 32198 ft | 434 kts | 173° |
| 2026-05-06 18:19 | 52.06113 | 10.78283 | 32517 ft | 433 kts | 173° |
| 2026-05-06 18:19 | 52.03152 | 10.79165 | 32838 ft | 432 kts | 173° |
| 2026-05-06 18:19 | 52.00196 | 10.80042 | 33141 ft | 431 kts | 173° |
| 2026-05-06 18:20 | 51.97248 | 10.80926 | 33469 ft | 430 kts | 171° |
| 2026-05-06 18:20 | 51.94348 | 10.82203 | 33789 ft | 431 kts | 166° |
| 2026-05-06 18:20 | 51.91501 | 10.83700 | 34062 ft | 430 kts | 165° |
| 2026-05-06 18:20 | 51.88672 | 10.85241 | 34341 ft | 428 kts | 165° |
| 2026-05-06 18:21 | 51.85853 | 10.86782 | 34615 ft | 426 kts | 165° |
| 2026-05-06 18:21 | 51.83042 | 10.88304 | 34804 ft | 427 kts | 165° |
| 2026-05-06 18:21 | 51.77336 | 10.91333 | 34791 ft | 435 kts | 166° |
| 2026-05-06 18:22 | 51.71565 | 10.94351 | 34797 ft | 442 kts | 166° |
| 2026-05-06 18:22 | 51.65662 | 10.97421 | 34796 ft | 448 kts | 166° |
| 2026-05-06 18:23 | 51.59728 | 11.00500 | 34789 ft | 449 kts | 166° |
| 2026-05-06 18:23 | 51.53778 | 11.03581 | 34792 ft | 449 kts | 166° |
| 2026-05-06 18:24 | 51.47836 | 11.06650 | 34780 ft | 448 kts | 166° |
| 2026-05-06 18:24 | 51.41902 | 11.09704 | 34776 ft | 446 kts | 166° |
| 2026-05-06 18:25 | 51.35990 | 11.12661 | 34788 ft | 444 kts | 167° |
| 2026-05-06 18:25 | 51.30094 | 11.15553 | 34784 ft | 442 kts | 167° |
| 2026-05-06 18:26 | 51.24214 | 11.18435 | 34781 ft | 441 kts | 167° |
| 2026-05-06 18:26 | 51.18363 | 11.21303 | 34777 ft | 439 kts | 167° |
| 2026-05-06 18:27 | 51.12526 | 11.24161 | 34776 ft | 438 kts | 167° |
| 2026-05-06 18:27 | 51.06730 | 11.26993 | 34777 ft | 438 kts | 167° |
| 2026-05-06 18:28 | 51.00910 | 11.29828 | 34773 ft | 437 kts | 167° |
| 2026-05-06 18:28 | 50.95091 | 11.32656 | 34772 ft | 437 kts | 168° |
| 2026-05-06 18:29 | 50.89282 | 11.35471 | 34771 ft | 437 kts | 168° |
| 2026-05-06 18:29 | 50.83466 | 11.38282 | 34774 ft | 437 kts | 168° |
| 2026-05-06 18:30 | 50.77646 | 11.41087 | 34778 ft | 437 kts | 168° |
| 2026-05-06 18:30 | 50.71862 | 11.43868 | 34778 ft | 437 kts | 168° |
| 2026-05-06 18:31 | 50.66041 | 11.46660 | 34774 ft | 437 kts | 168° |
| 2026-05-06 18:31 | 50.60214 | 11.49449 | 34783 ft | 436 kts | 168° |
| 2026-05-06 18:32 | 50.54404 | 11.52221 | 34776 ft | 435 kts | 168° |
| 2026-05-06 18:32 | 50.48615 | 11.54977 | 34780 ft | 435 kts | 168° |
| 2026-05-06 18:33 | 50.42827 | 11.57724 | 34785 ft | 435 kts | 168° |
| 2026-05-06 18:33 | 50.37024 | 11.60470 | 34777 ft | 435 kts | 168° |
| 2026-05-06 18:34 | 50.31246 | 11.63200 | 34773 ft | 433 kts | 168° |
| 2026-05-06 18:34 | 50.25477 | 11.65918 | 34773 ft | 432 kts | 168° |
| 2026-05-06 18:35 | 50.19716 | 11.68625 | 34775 ft | 431 kts | 168° |
| 2026-05-06 18:35 | 50.14010 | 11.71299 | 34773 ft | 431 kts | 168° |
| 2026-05-06 18:36 | 50.08266 | 11.73984 | 34777 ft | 432 kts | 168° |
| 2026-05-06 18:36 | 50.02514 | 11.76667 | 34769 ft | 431 kts | 168° |
| 2026-05-06 18:37 | 49.97742 | 11.78888 | 34772 ft | 430 kts | 168° |
| 2026-05-06 18:37 | 49.91030 | 11.82004 | 34776 ft | 430 kts | 168° |
| 2026-05-06 18:38 | 49.85302 | 11.84655 | 34756 ft | 429 kts | 168° |
| 2026-05-06 18:38 | 49.79566 | 11.87303 | 34436 ft | 432 kts | 169° |
| 2026-05-06 18:39 | 49.76684 | 11.88631 | 34166 ft | 429 kts | 169° |
| 2026-05-06 18:39 | 49.73837 | 11.89945 | 33880 ft | 425 kts | 169° |
| 2026-05-06 18:39 | 49.71008 | 11.91247 | 33564 ft | 423 kts | 169° |
| 2026-05-06 18:40 | 49.65406 | 11.93818 | 32907 ft | 422 kts | 169° |
| 2026-05-06 18:40 | 49.62592 | 11.95105 | 32593 ft | 422 kts | 169° |
| 2026-05-06 18:40 | 49.59771 | 11.96394 | 32265 ft | 422 kts | 169° |
| 2026-05-06 18:40 | 49.56954 | 11.97680 | 31955 ft | 423 kts | 169° |
| 2026-05-06 18:41 | 49.54128 | 11.98969 | 31792 ft | 424 kts | 169° |
| 2026-05-06 18:41 | 49.48445 | 12.01556 | 31774 ft | 427 kts | 169° |
| 2026-05-06 18:42 | 49.42725 | 12.04156 | 31784 ft | 428 kts | 169° |
| 2026-05-06 18:42 | 49.37014 | 12.06747 | 31782 ft | 428 kts | 169° |
| 2026-05-06 18:43 | 49.31341 | 12.09315 | 31784 ft | 427 kts | 169° |
| 2026-05-06 18:43 | 49.25646 | 12.11885 | 31789 ft | 426 kts | 169° |
| 2026-05-06 18:44 | 49.19951 | 12.14448 | 31781 ft | 426 kts | 169° |
| 2026-05-06 18:44 | 49.14273 | 12.16998 | 31781 ft | 425 kts | 169° |
| 2026-05-06 18:45 | 49.08595 | 12.19541 | 31773 ft | 425 kts | 168° |
| 2026-05-06 18:45 | 49.02925 | 12.22073 | 31551 ft | 430 kts | 168° |
| 2026-05-06 18:45 | 49.01013 | 12.22924 | 31269 ft | 433 kts | 168° |
| 2026-05-06 18:46 | 48.97143 | 12.24648 | 30764 ft | 433 kts | 168° |
| 2026-05-06 18:46 | 48.94253 | 12.25935 | 30395 ft | 434 kts | 167° |
| 2026-05-06 18:46 | 48.91341 | 12.27230 | 30029 ft | 437 kts | 167° |
| 2026-05-06 18:46 | 48.88417 | 12.28528 | 29621 ft | 439 kts | 167° |
| 2026-05-06 18:47 | 48.85481 | 12.29831 | 29204 ft | 440 kts | 167° |
| 2026-05-06 18:47 | 48.82529 | 12.31138 | 28788 ft | 442 kts | 167° |
| 2026-05-06 18:47 | 48.80573 | 12.32004 | 28519 ft | 443 kts | 167° |
| 2026-05-06 18:47 | 48.77610 | 12.33315 | 28106 ft | 444 kts | 167° |
| 2026-05-06 18:48 | 48.74631 | 12.34630 | 27702 ft | 446 kts | 167° |
| 2026-05-06 18:48 | 48.70669 | 12.36376 | 27181 ft | 448 kts | 167° |
| 2026-05-06 18:48 | 48.68643 | 12.37268 | 26911 ft | 450 kts | 167° |
| 2026-05-06 18:48 | 48.65629 | 12.38594 | 26534 ft | 452 kts | 167° |
| 2026-05-06 18:49 | 48.62609 | 12.39920 | 26152 ft | 454 kts | 167° |
| 2026-05-06 18:49 | 48.59574 | 12.41251 | 25779 ft | 455 kts | 167° |
| 2026-05-06 18:49 | 48.56557 | 12.42575 | 25397 ft | 446 kts | 167° |
| 2026-05-06 18:49 | 48.53599 | 12.43872 | 25020 ft | 440 kts | 167° |
| 2026-05-06 18:50 | 48.50699 | 12.45138 | 24672 ft | 440 kts | 167° |
| 2026-05-06 18:50 | 48.47739 | 12.46235 | 24302 ft | 437 kts | 176° |
| 2026-05-06 18:50 | 48.44732 | 12.46080 | 23958 ft | 431 kts | 193° |
| 2026-05-06 18:50 | 48.41797 | 12.45160 | 23895 ft | 432 kts | 189° |
| 2026-05-06 18:51 | 48.38792 | 12.44791 | 23856 ft | 432 kts | 185° |
| 2026-05-06 18:51 | 48.35794 | 12.44618 | 23852 ft | 431 kts | 184° |
| 2026-05-06 18:51 | 48.32794 | 12.44499 | 23851 ft | 431 kts | 184° |
| 2026-05-06 18:51 | 48.29795 | 12.44392 | 23845 ft | 430 kts | 185° |
| 2026-05-06 18:52 | 48.26881 | 12.43575 | 23846 ft | 425 kts | 203° |
| 2026-05-06 18:52 | 48.24379 | 12.41306 | 23871 ft | 422 kts | 220° |
| 2026-05-06 18:52 | 48.22306 | 12.38185 | 23862 ft | 422 kts | 230° |
| 2026-05-06 18:52 | 48.20465 | 12.34755 | 23866 ft | 422 kts | 230° |
| 2026-05-06 18:53 | 48.18617 | 12.31334 | 23861 ft | 423 kts | 230° |
| 2026-05-06 18:53 | 48.16754 | 12.27924 | 23860 ft | 423 kts | 230° |
| 2026-05-06 18:53 | 48.14879 | 12.24523 | 23864 ft | 424 kts | 230° |
| 2026-05-06 18:53 | 48.12992 | 12.21124 | 23875 ft | 423 kts | 229° |
| 2026-05-06 18:54 | 48.11103 | 12.17736 | 23861 ft | 425 kts | 229° |
| 2026-05-06 18:54 | 48.09228 | 12.14379 | 23858 ft | 425 kts | 229° |
| 2026-05-06 18:54 | 48.07305 | 12.10942 | 23636 ft | 425 kts | 229° |
| 2026-05-06 18:54 | 48.05436 | 12.07604 | 23321 ft | 421 kts | 229° |
| 2026-05-06 18:55 | 48.03559 | 12.04256 | 22966 ft | 419 kts | 229° |
| 2026-05-06 18:55 | 48.01697 | 12.00937 | 22607 ft | 411 kts | 229° |
| 2026-05-06 18:55 | 47.99901 | 11.97738 | 22227 ft | 392 kts | 229° |
| 2026-05-06 18:55 | 47.98184 | 11.94683 | 21872 ft | 375 kts | 229° |
| 2026-05-06 18:56 | 47.96541 | 11.91764 | 21518 ft | 360 kts | 229° |
| 2026-05-06 18:56 | 47.94958 | 11.88954 | 21171 ft | 347 kts | 229° |
| 2026-05-06 18:56 | 47.93429 | 11.86245 | 20811 ft | 336 kts | 228° |
| 2026-05-06 18:56 | 47.91944 | 11.83622 | 20427 ft | 327 kts | 227° |
| 2026-05-06 18:57 | 47.90247 | 11.81467 | 20028 ft | 317 kts | 210° |
| 2026-05-06 18:57 | 47.88259 | 11.80162 | 19684 ft | 310 kts | 197° |
| 2026-05-06 18:57 | 47.86150 | 11.79681 | 19301 ft | 305 kts | 185° |
| 2026-05-06 18:57 | 47.84038 | 11.79572 | 18944 ft | 302 kts | 184° |
| 2026-05-06 18:58 | 47.81952 | 11.79499 | 18587 ft | 298 kts | 184° |
| 2026-05-06 18:58 | 47.79893 | 11.79419 | 18232 ft | 296 kts | 184° |
| 2026-05-06 18:58 | 47.77824 | 11.79321 | 17854 ft | 298 kts | 184° |
| 2026-05-06 18:58 | 47.75747 | 11.79211 | 17455 ft | 300 kts | 185° |
| 2026-05-06 18:59 | 47.73656 | 11.79096 | 17058 ft | 302 kts | 185° |
| 2026-05-06 18:59 | 47.71555 | 11.78981 | 16671 ft | 301 kts | 184° |
| 2026-05-06 18:59 | 47.69489 | 11.79256 | 16261 ft | 307 kts | 167° |
| 2026-05-06 18:59 | 47.67473 | 11.80309 | 15906 ft | 307 kts | 163° |
| 2026-05-06 19:00 | 47.65454 | 11.81440 | 15526 ft | 305 kts | 167° |
| 2026-05-06 19:00 | 47.63424 | 11.81866 | 15136 ft | 295 kts | 186° |
| 2026-05-06 19:00 | 47.61455 | 11.81261 | 14758 ft | 287 kts | 204° |
| 2026-05-06 19:00 | 47.59791 | 11.79709 | 14380 ft | 281 kts | 224° |
| 2026-05-06 19:01 | 47.58632 | 11.77412 | 14027 ft | 280 kts | 243° |
| 2026-05-06 19:01 | 47.58064 | 11.74642 | 13701 ft | 286 kts | 256° |
| 2026-05-06 19:01 | 47.57736 | 11.71667 | 13315 ft | 292 kts | 258° |
| 2026-05-06 19:01 | 47.57447 | 11.68719 | 12921 ft | 293 kts | 259° |
| 2026-05-06 19:02 | 47.57166 | 11.65769 | 12851 ft | 286 kts | 259° |
| 2026-05-06 19:02 | 47.56890 | 11.62837 | 12831 ft | 282 kts | 259° |
| 2026-05-06 19:02 | 47.56616 | 11.59992 | 12844 ft | 284 kts | 259° |
| 2026-05-06 19:02 | 47.56345 | 11.57090 | 12843 ft | 284 kts | 259° |
| 2026-05-06 19:03 | 47.56079 | 11.54196 | 12846 ft | 284 kts | 259° |
| 2026-05-06 19:03 | 47.55808 | 11.51308 | 12828 ft | 281 kts | 259° |
| 2026-05-06 19:03 | 47.55533 | 11.48453 | 12839 ft | 280 kts | 259° |
| 2026-05-06 19:03 | 47.55266 | 11.45597 | 12843 ft | 280 kts | 259° |
| 2026-05-06 19:04 | 47.55000 | 11.42734 | 12838 ft | 282 kts | 259° |
| 2026-05-06 19:04 | 47.54731 | 11.39851 | 12828 ft | 283 kts | 259° |
| 2026-05-06 19:04 | 47.54460 | 11.36963 | 12844 ft | 284 kts | 259° |
| 2026-05-06 19:04 | 47.54189 | 11.34057 | 12846 ft | 286 kts | 259° |
| 2026-05-06 19:05 | 47.53916 | 11.31134 | 12842 ft | 288 kts | 259° |
| 2026-05-06 19:05 | 47.53641 | 11.28198 | 12827 ft | 288 kts | 259° |
| 2026-05-06 19:05 | 47.53369 | 11.25260 | 12840 ft | 288 kts | 259° |
| 2026-05-06 19:05 | 47.53098 | 11.22323 | 12834 ft | 288 kts | 258° |
| 2026-05-06 19:06 | 47.52727 | 11.19417 | 12842 ft | 287 kts | 255° |
| 2026-05-06 19:06 | 47.52317 | 11.16712 | 12826 ft | 287 kts | 254° |
| 2026-05-06 19:06 | 47.51880 | 11.13898 | 12839 ft | 285 kts | 254° |
| 2026-05-06 19:06 | 47.51428 | 11.11040 | 12833 ft | 285 kts | 254° |
| 2026-05-06 19:07 | 47.50979 | 11.08198 | 12832 ft | 283 kts | 254° |
| 2026-05-06 19:07 | 47.50532 | 11.05371 | 12844 ft | 281 kts | 254° |
| 2026-05-06 19:07 | 47.50085 | 11.02558 | 12855 ft | 282 kts | 253° |
| 2026-05-06 19:07 | 47.49635 | 10.99717 | 12749 ft | 286 kts | 254° |
| 2026-05-06 19:08 | 47.49175 | 10.96836 | 12485 ft | 289 kts | 253° |
| 2026-05-06 19:08 | 47.48709 | 10.93931 | 12213 ft | 290 kts | 254° |
| 2026-05-06 19:08 | 47.48246 | 10.91041 | 11949 ft | 287 kts | 253° |
| 2026-05-06 19:08 | 47.47789 | 10.88195 | 11686 ft | 283 kts | 254° |
| 2026-05-06 19:09 | 47.47335 | 10.85373 | 11571 ft | 284 kts | 253° |
| 2026-05-06 19:09 | 47.46699 | 10.82668 | 11508 ft | 280 kts | 238° |
| 2026-05-06 19:09 | 47.45582 | 10.80343 | 11533 ft | 278 kts | 230° |
| 2026-05-06 19:09 | 47.44355 | 10.78105 | 11447 ft | 282 kts | 229° |
| 2026-05-06 19:10 | 47.43096 | 10.75851 | 11180 ft | 286 kts | 229° |
| 2026-05-06 19:10 | 47.41802 | 10.73644 | 10948 ft | 283 kts | 220° |
| 2026-05-06 19:10 | 47.40120 | 10.72230 | 10694 ft | 275 kts | 195° |
| 2026-05-06 19:10 | 47.38281 | 10.71969 | 10623 ft | 259 kts | 176° |
| 2026-05-06 19:11 | 47.36603 | 10.72540 | 10611 ft | 236 kts | 159° |
| 2026-05-06 19:11 | 47.35229 | 10.73715 | 10600 ft | 224 kts | 148° |
| 2026-05-06 19:11 | 47.33970 | 10.75042 | 10610 ft | 222 kts | 147° |
| 2026-05-06 19:11 | 47.32709 | 10.76389 | 10618 ft | 227 kts | 147° |
| 2026-05-06 19:12 | 47.31432 | 10.77747 | 10599 ft | 226 kts | 147° |
| 2026-05-06 19:12 | 47.30224 | 10.79229 | 10579 ft | 229 kts | 130° |
| 2026-05-06 19:12 | 47.29588 | 10.81409 | 10300 ft | 238 kts | 101° |
| 2026-05-06 19:12 | 47.29550 | 10.83789 | 10021 ft | 232 kts | 90° |
| 2026-05-06 19:13 | 47.29661 | 10.86158 | 9677 ft | 225 kts | 89° |
| 2026-05-06 19:13 | 47.29778 | 10.88421 | 9296 ft | 218 kts | 88° |
| 2026-05-06 19:13 | 47.29878 | 10.90577 | 8972 ft | 211 kts | 90° |
| 2026-05-06 19:13 | 47.29967 | 10.92725 | 8641 ft | 208 kts | 90° |
| 2026-05-06 19:14 | 47.30052 | 10.94847 | 8301 ft | 206 kts | 89° |
| 2026-05-06 19:14 | 47.30134 | 10.96944 | 7972 ft | 204 kts | 89° |
| 2026-05-06 19:14 | 47.30213 | 10.99006 | 7709 ft | 199 kts | 88° |
| 2026-05-06 19:14 | 47.30288 | 11.01021 | 7448 ft | 195 kts | 88° |
| 2026-05-06 19:15 | 47.30361 | 11.03023 | 7210 ft | 199 kts | 88° |
| 2026-05-06 19:15 | 47.30431 | 11.05076 | 7009 ft | 202 kts | 88° |
| 2026-05-06 19:15 | 47.30492 | 11.07146 | 6757 ft | 202 kts | 88° |
| 2026-05-06 19:15 | 47.30501 | 11.09193 | 6501 ft | 199 kts | 100° |
| 2026-05-06 19:16 | 47.30030 | 11.11087 | 6260 ft | 195 kts | 115° |
| 2026-05-06 19:16 | 47.29443 | 11.12890 | 5993 ft | 195 kts | 116° |
| 2026-05-06 19:16 | 47.28852 | 11.14677 | 5730 ft | 193 kts | 116° |
| 2026-05-06 19:16 | 47.28267 | 11.16448 | 5518 ft | 191 kts | 115° |
| 2026-05-06 19:17 | 47.27708 | 11.18172 | 5390 ft | 184 kts | 116° |
| 2026-05-06 19:17 | 47.27170 | 11.19888 | 5055 ft | 186 kts | 115° |
| 2026-05-06 19:17 | 47.26638 | 11.21630 | 4698 ft | 197 kts | 115° |
| 2026-05-06 19:17 | 47.26065 | 11.23544 | 4262 ft | 206 kts | 113° |
| 2026-05-06 19:18 | 47.25526 | 11.25482 | 3708 ft | 200 kts | 110° |
| 2026-05-06 19:18 | 47.25292 | 11.27391 | 3300 ft | 184 kts | 82° |
| 2026-05-06 19:18 | 47.25495 | 11.29205 | 2779 ft | 185 kts | 83° |
| 2026-05-06 19:18 | 47.25670 | 11.31038 | 2358 ft | 178 kts | 87° |
| 2026-05-06 19:19 | 47.25871 | 11.32837 | 2122 ft | 182 kts | 86° |
| 2026-05-06 19:19 | 47.26066 | 11.34798 | 2478 ft | 201 kts | 85° |
| 2026-05-06 19:19 | 47.26214 | 11.36722 | 3124 ft | 182 kts | 86° |
| 2026-05-06 19:19 | 47.26252 | 11.38602 | 3908 ft | 186 kts | 91° |
| 2026-05-06 19:20 | 47.26397 | 11.40552 | 4486 ft | 202 kts | 71° |
| 2026-05-06 19:20 | 47.26976 | 11.42481 | 4589 ft | 214 kts | 67° |
| 2026-05-06 19:20 | 47.27601 | 11.44476 | 4932 ft | 211 kts | 66° |
| 2026-05-06 19:20 | 47.28233 | 11.46458 | 5484 ft | 215 kts | 66° |
| 2026-05-06 19:21 | 47.28865 | 11.48488 | 6027 ft | 220 kts | 67° |
| 2026-05-06 19:21 | 47.29502 | 11.50556 | 6548 ft | 223 kts | 68° |
| 2026-05-06 19:21 | 47.30147 | 11.52621 | 7048 ft | 227 kts | 67° |
| 2026-05-06 19:21 | 47.30817 | 11.54744 | 7564 ft | 229 kts | 67° |
| 2026-05-06 19:22 | 47.31496 | 11.56883 | 8097 ft | 232 kts | 67° |
| 2026-05-06 19:22 | 47.32184 | 11.59042 | 8630 ft | 234 kts | 67° |
| 2026-05-06 19:22 | 47.32881 | 11.61218 | 9181 ft | 235 kts | 67° |
| 2026-05-06 19:22 | 47.33582 | 11.63402 | 9697 ft | 236 kts | 67° |
| 2026-05-06 19:23 | 47.34288 | 11.65585 | 10167 ft | 234 kts | 67° |
| 2026-05-06 19:23 | 47.34986 | 11.67738 | 10644 ft | 232 kts | 67° |
| 2026-05-06 19:23 | 47.35679 | 11.69863 | 11111 ft | 227 kts | 67° |
| 2026-05-06 19:23 | 47.36358 | 11.71943 | 11582 ft | 223 kts | 67° |
| 2026-05-06 19:24 | 47.37059 | 11.73966 | 12003 ft | 222 kts | 56° |
| 2026-05-06 19:24 | 47.38233 | 11.75379 | 12425 ft | 218 kts | 17° |
| 2026-05-06 19:24 | 47.39687 | 11.75590 | 12828 ft | 210 kts | 341° |
| 2026-05-06 19:24 | 47.40983 | 11.74585 | 12834 ft | 213 kts | 305° |
| 2026-05-06 19:25 | 47.41663 | 11.72694 | 12852 ft | 218 kts | 278° |
| 2026-05-06 19:25 | 47.41976 | 11.70430 | 12802 ft | 230 kts | 276° |
| 2026-05-06 19:25 | 47.42249 | 11.68048 | 12869 ft | 245 kts | 275° |
| 2026-05-06 19:25 | 47.42505 | 11.65487 | 12858 ft | 257 kts | 274° |
| 2026-05-06 19:26 | 47.42766 | 11.62770 | 12828 ft | 275 kts | 274° |
| 2026-05-06 19:26 | 47.43037 | 11.59964 | 12817 ft | 277 kts | 274° |
| 2026-05-06 19:26 | 47.43311 | 11.57141 | 12836 ft | 278 kts | 274° |
| 2026-05-06 19:26 | 47.43589 | 11.54321 | 12842 ft | 276 kts | 274° |
| 2026-05-06 19:27 | 47.43861 | 11.51500 | 12823 ft | 277 kts | 274° |
| 2026-05-06 19:27 | 47.44133 | 11.48682 | 12850 ft | 279 kts | 274° |
| 2026-05-06 19:27 | 47.44401 | 11.45838 | 12849 ft | 280 kts | 274° |
| 2026-05-06 19:27 | 47.44657 | 11.42986 | 12807 ft | 278 kts | 273° |
| 2026-05-06 19:28 | 47.44905 | 11.40180 | 12828 ft | 273 kts | 275° |
| 2026-05-06 19:28 | 47.45149 | 11.37397 | 12829 ft | 275 kts | 273° |
| 2026-05-06 19:28 | 47.45412 | 11.34556 | 12835 ft | 282 kts | 274° |
| 2026-05-06 19:28 | 47.45680 | 11.31717 | 12849 ft | 274 kts | 274° |
| 2026-05-06 19:29 | 47.45944 | 11.29010 | 12832 ft | 258 kts | 274° |
| 2026-05-06 19:29 | 47.46198 | 11.26505 | 12810 ft | 243 kts | 274° |
| 2026-05-06 19:29 | 47.46451 | 11.24030 | 12830 ft | 244 kts | 274° |
| 2026-05-06 19:29 | 47.46702 | 11.21563 | 12824 ft | 242 kts | 274° |
| 2026-05-06 19:30 | 47.46954 | 11.19107 | 12835 ft | 241 kts | 274° |
| 2026-05-06 19:30 | 47.47207 | 11.16655 | 12843 ft | 241 kts | 274° |
| 2026-05-06 19:30 | 47.47457 | 11.14203 | 12833 ft | 241 kts | 274° |
| 2026-05-06 19:30 | 47.47703 | 11.11755 | 12839 ft | 240 kts | 274° |
| 2026-05-06 19:31 | 47.47952 | 11.09306 | 12829 ft | 241 kts | 274° |
| 2026-05-06 19:31 | 47.48036 | 11.06877 | 12854 ft | 234 kts | 265° |
| 2026-05-06 19:31 | 47.47948 | 11.02041 | 12860 ft | 236 kts | 264° |
| 2026-05-06 19:32 | 47.47911 | 11.00427 | 12855 ft | 238 kts | 264° |
| 2026-05-06 19:32 | 47.47851 | 10.97980 | 12844 ft | 238 kts | 264° |
| 2026-05-06 19:32 | 47.47792 | 10.95551 | 12850 ft | 235 kts | 264° |
| 2026-05-06 19:32 | 47.47712 | 10.92339 | 12867 ft | 238 kts | 264° |
| 2026-05-06 19:33 | 47.47671 | 10.90679 | 12858 ft | 238 kts | 264° |
| 2026-05-06 19:33 | 47.47571 | 10.88239 | 12832 ft | 240 kts | 262° |
| 2026-05-06 19:33 | 47.47423 | 10.85784 | 12551 ft | 243 kts | 261° |
| 2026-05-06 19:33 | 47.47255 | 10.83312 | 12311 ft | 240 kts | 261° |
| 2026-05-06 19:34 | 47.47089 | 10.80877 | 12065 ft | 236 kts | 261° |
| 2026-05-06 19:34 | 47.46758 | 10.78525 | 11781 ft | 233 kts | 238° |
| 2026-05-06 19:34 | 47.45588 | 10.76974 | 11569 ft | 230 kts | 200° |
| 2026-05-06 19:34 | 47.43995 | 10.76627 | 11373 ft | 233 kts | 183° |
| 2026-05-06 19:35 | 47.42362 | 10.76829 | 11104 ft | 237 kts | 173° |
| 2026-05-06 19:35 | 47.40734 | 10.77240 | 10878 ft | 238 kts | 172° |
| 2026-05-06 19:35 | 47.39117 | 10.77651 | 10651 ft | 232 kts | 172° |
| 2026-05-06 19:35 | 47.37539 | 10.78031 | 10649 ft | 229 kts | 173° |
| 2026-05-06 19:36 | 47.35950 | 10.78394 | 10625 ft | 233 kts | 173° |
| 2026-05-06 19:36 | 47.34342 | 10.78753 | 10624 ft | 234 kts | 173° |
| 2026-05-06 19:36 | 47.32758 | 10.79109 | 10619 ft | 226 kts | 173° |
| 2026-05-06 19:36 | 47.31311 | 10.79619 | 10630 ft | 205 kts | 155° |
| 2026-05-06 19:37 | 47.30233 | 10.81016 | 10468 ft | 212 kts | 127° |
| 2026-05-06 19:37 | 47.29672 | 10.83040 | 10227 ft | 218 kts | 102° |
| 2026-05-06 19:37 | 47.29635 | 10.85274 | 10019 ft | 219 kts | 90° |
| 2026-05-06 19:37 | 47.29732 | 10.87474 | 9756 ft | 216 kts | 88° |
| 2026-05-06 19:38 | 47.29834 | 10.89647 | 9476 ft | 210 kts | 90° |
| 2026-05-06 19:38 | 47.29926 | 10.91753 | 9206 ft | 204 kts | 90° |
| 2026-05-06 19:38 | 47.30012 | 10.93876 | 8927 ft | 210 kts | 90° |
| 2026-05-06 19:38 | 47.30096 | 10.96026 | 8654 ft | 211 kts | 90° |
| 2026-05-06 19:39 | 47.30180 | 10.98168 | 8328 ft | 208 kts | 89° |
| 2026-05-06 19:39 | 47.30259 | 11.00280 | 8023 ft | 206 kts | 89° |
| 2026-05-06 19:39 | 47.30336 | 11.02376 | 7713 ft | 203 kts | 89° |
| 2026-05-06 19:39 | 47.30410 | 11.04443 | 7405 ft | 201 kts | 89° |
| 2026-05-06 19:40 | 47.30472 | 11.06498 | 7122 ft | 200 kts | 89° |
| 2026-05-06 19:40 | 47.30528 | 11.08536 | 6806 ft | 199 kts | 89° |
| 2026-05-06 19:40 | 47.30508 | 11.10566 | 6500 ft | 197 kts | 92° |
| 2026-05-06 19:40 | 47.30234 | 11.12499 | 6189 ft | 192 kts | 112° |
| 2026-05-06 19:41 | 47.29710 | 11.14297 | 5854 ft | 191 kts | 114° |
| 2026-05-06 19:41 | 47.29176 | 11.16066 | 5514 ft | 187 kts | 114° |
| 2026-05-06 19:41 | 47.28647 | 11.17799 | 5182 ft | 183 kts | 114° |
| 2026-05-06 19:41 | 47.28130 | 11.19494 | 4859 ft | 181 kts | 114° |
| 2026-05-06 19:42 | 47.27595 | 11.21175 | 4542 ft | 182 kts | 116° |
| 2026-05-06 19:42 | 47.27014 | 11.22852 | 4121 ft | 184 kts | 118° |
| 2026-05-06 19:42 | 47.26417 | 11.24507 | 3641 ft | 181 kts | 115° |
| 2026-05-06 19:42 | 47.26071 | 11.26209 | 3340 ft | 170 kts | 105° |
| 2026-05-06 19:43 | 47.25744 | 11.27906 | 3137 ft | 171 kts | 105° |
| 2026-05-06 19:43 | 47.25529 | 11.29623 | 2774 ft | 174 kts | 93° |
| 2026-05-06 19:43 | 47.25709 | 11.31365 | 2342 ft | 171 kts | 81° |
| 2026-05-06 19:43 | 47.25903 | 11.33036 | 2002 ft | 158 kts | 94° |
| 2026-05-06 19:44 | 47.26026 | 11.34497 | 1904 ft | 111 kts | 82° |
| 2026-05-06 19:44 | 47.26097 | 11.35101 | 1896 ft | 40 kts | 80° |
| 2026-05-06 19:44 | 47.26073 | 11.35252 | 1900 ft | 15 kts | 165° |
| 2026-05-06 19:44 | 47.25971 | 11.35279 | 1899 ft | 4 kts | 171° |
| 2026-05-06 19:45 | 47.25942 | 11.35286 | 1899 ft | 4 kts | 172° |
| 2026-05-06 19:45 | 47.25913 | 11.35285 | 1906 ft | 4 kts | 195° |
| 2026-05-06 19:45 | 47.25900 | 11.35251 | 1901 ft | 4 kts | 263° |
| 2026-05-06 19:45 | 47.25896 | 11.35212 | 1907 ft | 3 kts | 261° |
| 2026-05-06 19:46 | 47.25890 | 11.35184 | 1896 ft | 1 kts | 236° |
| 2026-05-06 19:46 | 47.25874 | 11.35174 | 1904 ft | 7 kts | 199° |
| 2026-05-06 19:46 | 47.25861 | 11.35173 | 1900 ft | 1 kts | 178° |
| 2026-05-06 19:46 | 47.25847 | 11.35175 | 1897 ft | 2 kts | 174° |
| 2026-05-06 19:47 | 47.25837 | 11.35177 | 1902 ft | 0 kts | 172° |